sensor_id;sensor_type;location;lat;lon;timestamp;P1;durP1;ratioP1;P2;durP2;ratioP2
47431;SDS011;33183;52.290;6.144;2023-03-01T00:01:22;5.45;;;4.18;;
47431;SDS011;33183;52.290;6.144;2023-03-01T00:03:50;6.78;;;4.32;;
47431;SDS011;33183;52.290;6.144;2023-03-01T00:06:16;5.88;;;4.30;;
47431;SDS011;33183;52.290;6.144;2023-03-01T00:08:41;6.05;;;4.28;;
47431;SDS011;33183;52.290;6.144;2023-03-01T00:11:08;7.30;;;3.55;;
47431;SDS011;33183;52.290;6.144;2023-03-01T00:13:37;5.38;;;3.85;;
47431;SDS011;33183;52.290;6.144;2023-03-01T00:16:04;6.15;;;4.43;;
47431;SDS011;33183;52.290;6.144;2023-03-01T00:18:31;5.65;;;3.72;;
47431;SDS011;33183;52.290;6.144;2023-03-01T00:20:57;5.18;;;3.72;;
47431;SDS011;33183;52.290;6.144;2023-03-01T00:23:22;4.90;;;3.70;;
47431;SDS011;33183;52.290;6.144;2023-03-01T00:25:48;4.90;;;3.80;;
47431;SDS011;33183;52.290;6.144;2023-03-01T00:28:13;4.75;;;3.67;;
47431;SDS011;33183;52.290;6.144;2023-03-01T00:30:38;5.45;;;3.45;;
47431;SDS011;33183;52.290;6.144;2023-03-01T00:33:04;5.65;;;3.70;;
47431;SDS011;33183;52.290;6.144;2023-03-01T00:35:29;5.28;;;3.42;;
47431;SDS011;33183;52.290;6.144;2023-03-01T00:37:57;6.05;;;3.70;;
47431;SDS011;33183;52.290;6.144;2023-03-01T00:40:23;5.47;;;3.67;;
47431;SDS011;33183;52.290;6.144;2023-03-01T00:42:49;5.78;;;3.67;;
47431;SDS011;33183;52.290;6.144;2023-03-01T00:45:14;5.03;;;3.50;;
47431;SDS011;33183;52.290;6.144;2023-03-01T00:47:40;4.45;;;3.47;;
47431;SDS011;33183;52.290;6.144;2023-03-01T00:50:05;4.82;;;3.40;;
47431;SDS011;33183;52.290;6.144;2023-03-01T00:52:31;5.80;;;3.70;;
47431;SDS011;33183;52.290;6.144;2023-03-01T00:54:56;4.28;;;3.13;;
47431;SDS011;33183;52.290;6.144;2023-03-01T00:57:22;4.18;;;3.33;;
47431;SDS011;33183;52.290;6.144;2023-03-01T00:59:48;4.07;;;2.58;;
47431;SDS011;33183;52.290;6.144;2023-03-01T01:02:13;4.28;;;3.47;;
47431;SDS011;33183;52.290;6.144;2023-03-01T01:04:38;3.60;;;2.90;;
47431;SDS011;33183;52.290;6.144;2023-03-01T01:07:04;4.60;;;2.97;;
47431;SDS011;33183;52.290;6.144;2023-03-01T01:09:30;4.82;;;3.13;;
47431;SDS011;33183;52.290;6.144;2023-03-01T01:11:56;5.20;;;3.67;;
47431;SDS011;33183;52.290;6.144;2023-03-01T01:14:21;5.15;;;3.50;;
47431;SDS011;33183;52.290;6.144;2023-03-01T01:16:46;4.22;;;3.40;;
47431;SDS011;33183;52.290;6.144;2023-03-01T01:19:12;5.43;;;3.58;;
47431;SDS011;33183;52.290;6.144;2023-03-01T01:21:38;5.22;;;3.50;;
47431;SDS011;33183;52.290;6.144;2023-03-01T01:24:04;4.63;;;3.28;;
47431;SDS011;33183;52.290;6.144;2023-03-01T01:26:30;5.75;;;3.50;;
47431;SDS011;33183;52.290;6.144;2023-03-01T01:28:57;5.63;;;3.08;;
47431;SDS011;33183;52.290;6.144;2023-03-01T01:31:23;4.70;;;3.17;;
47431;SDS011;33183;52.290;6.144;2023-03-01T01:33:49;5.15;;;3.60;;
47431;SDS011;33183;52.290;6.144;2023-03-01T01:36:15;5.80;;;3.42;;
47431;SDS011;33183;52.290;6.144;2023-03-01T01:38:41;4.22;;;3.10;;
47431;SDS011;33183;52.290;6.144;2023-03-01T01:41:07;4.93;;;3.10;;
47431;SDS011;33183;52.290;6.144;2023-03-01T01:43:37;5.78;;;3.53;;
47431;SDS011;33183;52.290;6.144;2023-03-01T01:49:32;5.43;;;3.92;;
47431;SDS011;33183;52.290;6.144;2023-03-01T01:57:06;4.25;;;3.10;;
47431;SDS011;33183;52.290;6.144;2023-03-01T01:59:34;3.95;;;3.25;;
47431;SDS011;33183;52.290;6.144;2023-03-01T02:02:00;3.80;;;3.08;;
47431;SDS011;33183;52.290;6.144;2023-03-01T02:04:27;3.95;;;2.92;;
47431;SDS011;33183;52.290;6.144;2023-03-01T02:09:29;3.42;;;2.78;;
47431;SDS011;33183;52.290;6.144;2023-03-01T02:11:55;3.95;;;3.10;;
47431;SDS011;33183;52.290;6.144;2023-03-01T02:14:21;4.22;;;3.13;;
47431;SDS011;33183;52.290;6.144;2023-03-01T02:16:46;4.25;;;3.40;;
47431;SDS011;33183;52.290;6.144;2023-03-01T02:19:14;4.55;;;3.20;;
47431;SDS011;33183;52.290;6.144;2023-03-01T02:21:53;4.40;;;2.92;;
47431;SDS011;33183;52.290;6.144;2023-03-01T02:24:47;4.28;;;3.17;;
47431;SDS011;33183;52.290;6.144;2023-03-01T02:27:13;3.58;;;2.92;;
47431;SDS011;33183;52.290;6.144;2023-03-01T02:29:38;5.30;;;3.00;;
47431;SDS011;33183;52.290;6.144;2023-03-01T02:32:03;3.83;;;2.80;;
47431;SDS011;33183;52.290;6.144;2023-03-01T02:34:29;3.38;;;2.60;;
47431;SDS011;33183;52.290;6.144;2023-03-01T02:39:33;4.03;;;2.97;;
47431;SDS011;33183;52.290;6.144;2023-03-01T02:42:02;3.88;;;3.00;;
47431;SDS011;33183;52.290;6.144;2023-03-01T02:44:27;4.05;;;2.90;;
47431;SDS011;33183;52.290;6.144;2023-03-01T02:46:53;3.70;;;2.60;;
47431;SDS011;33183;52.290;6.144;2023-03-01T02:49:25;3.38;;;2.60;;
47431;SDS011;33183;52.290;6.144;2023-03-01T02:54:46;4.32;;;3.40;;
47431;SDS011;33183;52.290;6.144;2023-03-01T02:57:16;4.15;;;3.20;;
47431;SDS011;33183;52.290;6.144;2023-03-01T02:59:43;4.20;;;2.90;;
47431;SDS011;33183;52.290;6.144;2023-03-01T03:02:18;4.57;;;2.80;;
47431;SDS011;33183;52.290;6.144;2023-03-01T03:04:46;4.18;;;2.88;;
47431;SDS011;33183;52.290;6.144;2023-03-01T03:07:11;3.70;;;2.58;;
47431;SDS011;33183;52.290;6.144;2023-03-01T03:09:37;6.68;;;2.65;;
47431;SDS011;33183;52.290;6.144;2023-03-01T03:12:02;3.90;;;2.72;;
47431;SDS011;33183;52.290;6.144;2023-03-01T03:14:27;5.35;;;3.08;;
47431;SDS011;33183;52.290;6.144;2023-03-01T03:16:53;3.42;;;2.90;;
47431;SDS011;33183;52.290;6.144;2023-03-01T03:19:18;3.65;;;3.00;;
47431;SDS011;33183;52.290;6.144;2023-03-01T03:21:44;3.05;;;2.60;;
47431;SDS011;33183;52.290;6.144;2023-03-01T03:24:09;4.53;;;3.10;;
47431;SDS011;33183;52.290;6.144;2023-03-01T03:26:34;3.35;;;2.75;;
47431;SDS011;33183;52.290;6.144;2023-03-01T03:29:00;3.22;;;2.65;;
47431;SDS011;33183;52.290;6.144;2023-03-01T03:31:26;3.22;;;2.72;;
47431;SDS011;33183;52.290;6.144;2023-03-01T03:33:51;3.28;;;2.70;;
47431;SDS011;33183;52.290;6.144;2023-03-01T03:36:17;3.50;;;2.60;;
47431;SDS011;33183;52.290;6.144;2023-03-01T03:38:47;3.40;;;2.70;;
47431;SDS011;33183;52.290;6.144;2023-03-01T03:41:13;3.28;;;2.70;;
47431;SDS011;33183;52.290;6.144;2023-03-01T03:43:39;3.65;;;3.10;;
47431;SDS011;33183;52.290;6.144;2023-03-01T03:46:07;2.97;;;2.50;;
47431;SDS011;33183;52.290;6.144;2023-03-01T03:48:34;3.92;;;3.08;;
47431;SDS011;33183;52.290;6.144;2023-03-01T03:51:04;5.07;;;2.63;;
47431;SDS011;33183;52.290;6.144;2023-03-01T03:53:32;3.90;;;2.70;;
47431;SDS011;33183;52.290;6.144;2023-03-01T03:55:58;3.58;;;2.42;;
47431;SDS011;33183;52.290;6.144;2023-03-01T03:58:23;4.00;;;2.88;;
47431;SDS011;33183;52.290;6.144;2023-03-01T04:00:52;3.90;;;2.88;;
47431;SDS011;33183;52.290;6.144;2023-03-01T04:03:19;3.45;;;2.45;;
47431;SDS011;33183;52.290;6.144;2023-03-01T04:05:45;3.13;;;2.67;;
47431;SDS011;33183;52.290;6.144;2023-03-01T04:08:11;3.17;;;2.47;;
47431;SDS011;33183;52.290;6.144;2023-03-01T04:10:41;4.25;;;3.42;;
47431;SDS011;33183;52.290;6.144;2023-03-01T04:13:11;3.28;;;2.50;;
47431;SDS011;33183;52.290;6.144;2023-03-01T04:15:37;3.50;;;2.90;;
47431;SDS011;33183;52.290;6.144;2023-03-01T04:18:03;3.17;;;2.50;;
47431;SDS011;33183;52.290;6.144;2023-03-01T04:20:30;3.08;;;2.65;;
47431;SDS011;33183;52.290;6.144;2023-03-01T04:25:38;3.97;;;3.03;;
47431;SDS011;33183;52.290;6.144;2023-03-01T04:28:19;4.20;;;2.88;;
47431;SDS011;33183;52.290;6.144;2023-03-01T04:30:45;3.22;;;2.60;;
47431;SDS011;33183;52.290;6.144;2023-03-01T04:33:11;3.65;;;2.70;;
47431;SDS011;33183;52.290;6.144;2023-03-01T04:35:36;3.53;;;2.55;;
47431;SDS011;33183;52.290;6.144;2023-03-01T04:38:03;4.00;;;2.45;;
47431;SDS011;33183;52.290;6.144;2023-03-01T04:40:29;3.53;;;2.58;;
47431;SDS011;33183;52.290;6.144;2023-03-01T04:42:54;2.92;;;2.53;;
47431;SDS011;33183;52.290;6.144;2023-03-01T04:45:19;3.22;;;2.33;;
47431;SDS011;33183;52.290;6.144;2023-03-01T04:47:45;2.83;;;2.42;;
47431;SDS011;33183;52.290;6.144;2023-03-01T04:50:12;2.80;;;2.50;;
47431;SDS011;33183;52.290;6.144;2023-03-01T04:52:39;3.08;;;2.78;;
47431;SDS011;33183;52.290;6.144;2023-03-01T04:55:05;3.75;;;2.75;;
47431;SDS011;33183;52.290;6.144;2023-03-01T04:57:31;3.70;;;2.40;;
47431;SDS011;33183;52.290;6.144;2023-03-01T04:59:56;4.03;;;2.90;;
47431;SDS011;33183;52.290;6.144;2023-03-01T05:02:22;3.60;;;2.60;;
47431;SDS011;33183;52.290;6.144;2023-03-01T05:04:47;3.08;;;2.35;;
47431;SDS011;33183;52.290;6.144;2023-03-01T05:07:13;2.70;;;2.30;;
47431;SDS011;33183;52.290;6.144;2023-03-01T05:09:45;2.72;;;2.28;;
47431;SDS011;33183;52.290;6.144;2023-03-01T05:12:11;4.10;;;2.50;;
47431;SDS011;33183;52.290;6.144;2023-03-01T05:14:37;3.00;;;2.67;;
47431;SDS011;33183;52.290;6.144;2023-03-01T05:17:03;2.90;;;2.50;;
47431;SDS011;33183;52.290;6.144;2023-03-01T05:19:29;3.67;;;2.95;;
47431;SDS011;33183;52.290;6.144;2023-03-01T05:21:56;3.08;;;2.58;;
47431;SDS011;33183;52.290;6.144;2023-03-01T05:24:29;3.03;;;2.22;;
47431;SDS011;33183;52.290;6.144;2023-03-01T05:26:55;2.55;;;2.20;;
47431;SDS011;33183;52.290;6.144;2023-03-01T05:29:21;2.90;;;2.40;;
47431;SDS011;33183;52.290;6.144;2023-03-01T05:31:53;3.70;;;3.05;;
47431;SDS011;33183;52.290;6.144;2023-03-01T05:34:38;3.92;;;2.47;;
47431;SDS011;33183;52.290;6.144;2023-03-01T05:37:03;2.80;;;2.25;;
47431;SDS011;33183;52.290;6.144;2023-03-01T05:39:30;3.03;;;2.38;;
47431;SDS011;33183;52.290;6.144;2023-03-01T05:41:58;5.53;;;2.83;;
47431;SDS011;33183;52.290;6.144;2023-03-01T05:44:24;2.73;;;2.43;;
47431;SDS011;33183;52.290;6.144;2023-03-01T05:46:50;3.28;;;2.35;;
47431;SDS011;33183;52.290;6.144;2023-03-01T05:49:16;2.78;;;2.33;;
47431;SDS011;33183;52.290;6.144;2023-03-01T05:51:42;4.32;;;2.47;;
47431;SDS011;33183;52.290;6.144;2023-03-01T05:54:08;2.92;;;2.50;;
47431;SDS011;33183;52.290;6.144;2023-03-01T05:56:34;2.70;;;2.42;;
47431;SDS011;33183;52.290;6.144;2023-03-01T05:59:00;2.97;;;2.42;;
47431;SDS011;33183;52.290;6.144;2023-03-01T06:01:26;3.47;;;2.38;;
47431;SDS011;33183;52.290;6.144;2023-03-01T06:03:51;2.60;;;2.40;;
47431;SDS011;33183;52.290;6.144;2023-03-01T06:06:17;4.13;;;2.38;;
47431;SDS011;33183;52.290;6.144;2023-03-01T06:08:43;5.30;;;2.75;;
47431;SDS011;33183;52.290;6.144;2023-03-01T06:11:08;3.70;;;2.40;;
47431;SDS011;33183;52.290;6.144;2023-03-01T06:13:33;3.90;;;3.03;;
47431;SDS011;33183;52.290;6.144;2023-03-01T06:15:58;3.00;;;2.50;;
47431;SDS011;33183;52.290;6.144;2023-03-01T06:18:24;4.47;;;2.65;;
47431;SDS011;33183;52.290;6.144;2023-03-01T06:20:53;4.05;;;2.97;;
47431;SDS011;33183;52.290;6.144;2023-03-01T06:23:19;4.93;;;2.45;;
47431;SDS011;33183;52.290;6.144;2023-03-01T06:25:44;2.83;;;2.50;;
47431;SDS011;33183;52.290;6.144;2023-03-01T06:28:09;3.60;;;2.70;;
47431;SDS011;33183;52.290;6.144;2023-03-01T06:30:35;2.97;;;2.30;;
47431;SDS011;33183;52.290;6.144;2023-03-01T06:33:00;5.30;;;2.92;;
47431;SDS011;33183;52.290;6.144;2023-03-01T06:35:26;4.10;;;2.80;;
47431;SDS011;33183;52.290;6.144;2023-03-01T06:37:54;4.03;;;2.67;;
47431;SDS011;33183;52.290;6.144;2023-03-01T06:40:20;3.38;;;2.35;;
47431;SDS011;33183;52.290;6.144;2023-03-01T06:42:47;2.50;;;2.30;;
47431;SDS011;33183;52.290;6.144;2023-03-01T06:45:14;4.82;;;2.80;;
47431;SDS011;33183;52.290;6.144;2023-03-01T06:47:39;4.35;;;2.72;;
47431;SDS011;33183;52.290;6.144;2023-03-01T06:50:04;3.70;;;2.80;;
47431;SDS011;33183;52.290;6.144;2023-03-01T06:52:30;5.63;;;3.00;;
47431;SDS011;33183;52.290;6.144;2023-03-01T06:54:56;2.58;;;2.30;;
47431;SDS011;33183;52.290;6.144;2023-03-01T06:57:21;5.10;;;2.50;;
47431;SDS011;33183;52.290;6.144;2023-03-01T06:59:47;3.13;;;2.67;;
47431;SDS011;33183;52.290;6.144;2023-03-01T07:02:12;4.20;;;2.83;;
47431;SDS011;33183;52.290;6.144;2023-03-01T07:04:39;4.35;;;2.83;;
47431;SDS011;33183;52.290;6.144;2023-03-01T07:07:04;4.20;;;2.92;;
47431;SDS011;33183;52.290;6.144;2023-03-01T07:09:30;5.30;;;3.00;;
47431;SDS011;33183;52.290;6.144;2023-03-01T07:11:56;3.25;;;2.47;;
47431;SDS011;33183;52.290;6.144;2023-03-01T07:14:22;3.17;;;2.50;;
47431;SDS011;33183;52.290;6.144;2023-03-01T07:16:50;4.10;;;2.90;;
47431;SDS011;33183;52.290;6.144;2023-03-01T07:19:16;2.72;;;2.30;;
47431;SDS011;33183;52.290;6.144;2023-03-01T07:21:41;4.22;;;2.80;;
47431;SDS011;33183;52.290;6.144;2023-03-01T07:24:07;3.15;;;2.42;;
47431;SDS011;33183;52.290;6.144;2023-03-01T07:26:33;4.15;;;3.28;;
47431;SDS011;33183;52.290;6.144;2023-03-01T07:28:59;2.80;;;2.42;;
47431;SDS011;33183;52.290;6.144;2023-03-01T07:31:25;3.60;;;2.55;;
47431;SDS011;33183;52.290;6.144;2023-03-01T07:33:52;3.90;;;2.60;;
47431;SDS011;33183;52.290;6.144;2023-03-01T07:36:18;3.22;;;2.92;;
47431;SDS011;33183;52.290;6.144;2023-03-01T07:38:43;3.85;;;2.75;;
47431;SDS011;33183;52.290;6.144;2023-03-01T07:41:08;3.55;;;2.88;;
47431;SDS011;33183;52.290;6.144;2023-03-01T07:43:33;4.07;;;3.08;;
47431;SDS011;33183;52.290;6.144;2023-03-01T07:46:00;4.60;;;3.13;;
47431;SDS011;33183;52.290;6.144;2023-03-01T07:48:25;3.50;;;2.80;;
47431;SDS011;33183;52.290;6.144;2023-03-01T07:50:51;3.88;;;2.88;;
47431;SDS011;33183;52.290;6.144;2023-03-01T07:53:16;3.15;;;2.85;;
47431;SDS011;33183;52.290;6.144;2023-03-01T07:55:41;3.45;;;2.42;;
47431;SDS011;33183;52.290;6.144;2023-03-01T07:58:07;4.60;;;2.92;;
47431;SDS011;33183;52.290;6.144;2023-03-01T08:00:32;3.60;;;2.65;;
47431;SDS011;33183;52.290;6.144;2023-03-01T08:03:00;4.25;;;2.90;;
47431;SDS011;33183;52.290;6.144;2023-03-01T08:05:27;3.53;;;2.78;;
47431;SDS011;33183;52.290;6.144;2023-03-01T08:07:52;2.97;;;2.55;;
47431;SDS011;33183;52.290;6.144;2023-03-01T08:10:18;3.10;;;2.80;;
47431;SDS011;33183;52.290;6.144;2023-03-01T08:12:44;3.78;;;2.60;;
47431;SDS011;33183;52.290;6.144;2023-03-01T08:15:09;3.30;;;2.42;;
47431;SDS011;33183;52.290;6.144;2023-03-01T08:17:35;2.88;;;2.10;;
47431;SDS011;33183;52.290;6.144;2023-03-01T08:20:00;3.03;;;2.20;;
47431;SDS011;33183;52.290;6.144;2023-03-01T08:22:26;3.33;;;2.40;;
47431;SDS011;33183;52.290;6.144;2023-03-01T08:24:51;3.15;;;2.22;;
47431;SDS011;33183;52.290;6.144;2023-03-01T08:27:16;3.00;;;2.35;;
47431;SDS011;33183;52.290;6.144;2023-03-01T08:29:42;3.50;;;2.35;;
47431;SDS011;33183;52.290;6.144;2023-03-01T08:32:07;3.30;;;2.30;;
47431;SDS011;33183;52.290;6.144;2023-03-01T08:34:33;4.57;;;2.65;;
47431;SDS011;33183;52.290;6.144;2023-03-01T08:37:00;3.00;;;2.60;;
47431;SDS011;33183;52.290;6.144;2023-03-01T08:39:26;3.67;;;2.35;;
47431;SDS011;33183;52.290;6.144;2023-03-01T08:41:52;3.25;;;2.38;;
47431;SDS011;33183;52.290;6.144;2023-03-01T08:44:17;3.22;;;2.47;;
47431;SDS011;33183;52.290;6.144;2023-03-01T08:46:43;3.03;;;2.25;;
47431;SDS011;33183;52.290;6.144;2023-03-01T08:49:13;3.03;;;2.30;;
47431;SDS011;33183;52.290;6.144;2023-03-01T08:51:40;3.33;;;2.10;;
47431;SDS011;33183;52.290;6.144;2023-03-01T08:54:06;3.40;;;2.20;;
47431;SDS011;33183;52.290;6.144;2023-03-01T08:56:35;3.13;;;2.38;;
47431;SDS011;33183;52.290;6.144;2023-03-01T08:59:01;2.70;;;2.10;;
47431;SDS011;33183;52.290;6.144;2023-03-01T09:01:26;3.13;;;2.17;;
47431;SDS011;33183;52.290;6.144;2023-03-01T09:03:51;4.53;;;2.30;;
47431;SDS011;33183;52.290;6.144;2023-03-01T09:06:16;3.40;;;1.98;;
47431;SDS011;33183;52.290;6.144;2023-03-01T09:08:43;2.92;;;2.15;;
47431;SDS011;33183;52.290;6.144;2023-03-01T09:11:11;3.95;;;2.00;;
47431;SDS011;33183;52.290;6.144;2023-03-01T09:13:37;2.67;;;1.98;;
47431;SDS011;33183;52.290;6.144;2023-03-01T09:16:04;2.35;;;1.90;;
47431;SDS011;33183;52.290;6.144;2023-03-01T09:18:31;3.42;;;1.88;;
47431;SDS011;33183;52.290;6.144;2023-03-01T09:21:01;2.70;;;1.90;;
47431;SDS011;33183;52.290;6.144;2023-03-01T09:23:32;2.28;;;1.80;;
47431;SDS011;33183;52.290;6.144;2023-03-01T09:25:59;2.10;;;1.88;;
47431;SDS011;33183;52.290;6.144;2023-03-01T09:28:24;3.38;;;2.33;;
47431;SDS011;33183;52.290;6.144;2023-03-01T09:30:50;3.63;;;1.98;;
47431;SDS011;33183;52.290;6.144;2023-03-01T09:33:15;2.95;;;2.20;;
47431;SDS011;33183;52.290;6.144;2023-03-01T09:35:41;2.38;;;1.88;;
47431;SDS011;33183;52.290;6.144;2023-03-01T09:38:11;3.05;;;2.20;;
47431;SDS011;33183;52.290;6.144;2023-03-01T09:40:41;2.70;;;1.80;;
47431;SDS011;33183;52.290;6.144;2023-03-01T09:43:11;2.60;;;1.85;;
47431;SDS011;33183;52.290;6.144;2023-03-01T09:45:44;4.13;;;2.00;;
47431;SDS011;33183;52.290;6.144;2023-03-01T09:48:16;2.30;;;1.67;;
47431;SDS011;33183;52.290;6.144;2023-03-01T09:50:43;3.42;;;1.67;;
47431;SDS011;33183;52.290;6.144;2023-03-01T09:53:16;3.10;;;1.80;;
47431;SDS011;33183;52.290;6.144;2023-03-01T09:55:58;2.47;;;1.80;;
47431;SDS011;33183;52.290;6.144;2023-03-01T10:01:27;2.42;;;1.80;;
47431;SDS011;33183;52.290;6.144;2023-03-01T10:06:36;2.85;;;1.98;;
47431;SDS011;33183;52.290;6.144;2023-03-01T10:09:10;3.15;;;1.67;;
47431;SDS011;33183;52.290;6.144;2023-03-01T10:11:41;2.08;;;1.80;;
47431;SDS011;33183;52.290;6.144;2023-03-01T10:17:07;1.75;;;1.33;;
47431;SDS011;33183;52.290;6.144;2023-03-01T10:19:38;3.63;;;1.85;;
47431;SDS011;33183;52.290;6.144;2023-03-01T10:22:11;2.28;;;1.50;;
47431;SDS011;33183;52.290;6.144;2023-03-01T10:24:40;2.13;;;1.80;;
47431;SDS011;33183;52.290;6.144;2023-03-01T10:27:11;2.35;;;1.50;;
47431;SDS011;33183;52.290;6.144;2023-03-01T10:29:46;1.85;;;1.30;;
47431;SDS011;33183;52.290;6.144;2023-03-01T10:32:14;2.40;;;1.50;;
47431;SDS011;33183;52.290;6.144;2023-03-01T10:34:39;1.98;;;1.35;;
47431;SDS011;33183;52.290;6.144;2023-03-01T10:37:12;3.30;;;1.42;;
47431;SDS011;33183;52.290;6.144;2023-03-01T10:40:00;2.50;;;1.75;;
47431;SDS011;33183;52.290;6.144;2023-03-01T10:45:17;1.60;;;1.40;;
47431;SDS011;33183;52.290;6.144;2023-03-01T10:48:05;3.97;;;1.65;;
47431;SDS011;33183;52.290;6.144;2023-03-01T10:50:37;4.07;;;1.55;;
47431;SDS011;33183;52.290;6.144;2023-03-01T10:53:04;1.77;;;1.23;;
47431;SDS011;33183;52.290;6.144;2023-03-01T10:55:37;1.30;;;1.00;;
47431;SDS011;33183;52.290;6.144;2023-03-01T11:00:33;1.80;;;1.17;;
47431;SDS011;33183;52.290;6.144;2023-03-01T11:03:12;1.67;;;1.27;;
47431;SDS011;33183;52.290;6.144;2023-03-01T11:06:40;1.67;;;1.05;;
47431;SDS011;33183;52.290;6.144;2023-03-01T11:08:43;3.03;;;1.20;;
47431;SDS011;33183;52.290;6.144;2023-03-01T11:14:17;2.75;;;1.30;;
47431;SDS011;33183;52.290;6.144;2023-03-01T11:16:45;1.40;;;1.00;;
47431;SDS011;33183;52.290;6.144;2023-03-01T11:19:14;1.48;;;1.13;;
47431;SDS011;33183;52.290;6.144;2023-03-01T11:24:16;1.50;;;1.23;;
47431;SDS011;33183;52.290;6.144;2023-03-01T11:26:43;1.33;;;1.00;;
47431;SDS011;33183;52.290;6.144;2023-03-01T11:29:21;2.53;;;1.33;;
47431;SDS011;33183;52.290;6.144;2023-03-01T11:31:52;1.63;;;1.08;;
47431;SDS011;33183;52.290;6.144;2023-03-01T11:34:23;1.27;;;1.05;;
47431;SDS011;33183;52.290;6.144;2023-03-01T11:36:53;2.00;;;1.10;;
47431;SDS011;33183;52.290;6.144;2023-03-01T11:45:17;1.58;;;1.17;;
47431;SDS011;33183;52.290;6.144;2023-03-01T11:53:07;1.60;;;1.20;;
47431;SDS011;33183;52.290;6.144;2023-03-01T11:56:38;3.22;;;1.33;;
47431;SDS011;33183;52.290;6.144;2023-03-01T12:04:31;1.63;;;1.10;;
47431;SDS011;33183;52.290;6.144;2023-03-01T12:07:14;1.73;;;1.20;;
47431;SDS011;33183;52.290;6.144;2023-03-01T12:15:08;3.22;;;1.20;;
47431;SDS011;33183;52.290;6.144;2023-03-01T12:20:34;1.58;;;1.40;;
47431;SDS011;33183;52.290;6.144;2023-03-01T12:25:58;1.67;;;1.10;;
47431;SDS011;33183;52.290;6.144;2023-03-01T12:31:47;1.63;;;1.20;;
47431;SDS011;33183;52.290;6.144;2023-03-01T12:37:03;1.58;;;1.00;;
47431;SDS011;33183;52.290;6.144;2023-03-01T12:42:31;1.85;;;1.17;;
47431;SDS011;33183;52.290;6.144;2023-03-01T12:45:14;1.77;;;1.13;;
47431;SDS011;33183;52.290;6.144;2023-03-01T12:48:00;1.60;;;1.10;;
47431;SDS011;33183;52.290;6.144;2023-03-01T12:50:48;1.73;;;1.10;;
47431;SDS011;33183;52.290;6.144;2023-03-01T12:53:21;2.25;;;1.10;;
47431;SDS011;33183;52.290;6.144;2023-03-01T12:58:30;1.30;;;1.00;;
47431;SDS011;33183;52.290;6.144;2023-03-01T13:12:03;3.20;;;1.25;;
47431;SDS011;33183;52.290;6.144;2023-03-01T13:16:56;1.08;;;0.93;;
47431;SDS011;33183;52.290;6.144;2023-03-01T13:19:23;3.15;;;1.00;;
47431;SDS011;33183;52.290;6.144;2023-03-01T13:21:49;1.40;;;0.90;;
47431;SDS011;33183;52.290;6.144;2023-03-01T13:29:43;1.30;;;0.90;;
47431;SDS011;33183;52.290;6.144;2023-03-01T13:34:53;1.05;;;0.80;;
47431;SDS011;33183;52.290;6.144;2023-03-01T13:37:24;1.10;;;0.80;;
47431;SDS011;33183;52.290;6.144;2023-03-01T13:39:54;1.77;;;1.00;;
47431;SDS011;33183;52.290;6.144;2023-03-01T13:42:39;2.13;;;1.00;;
47431;SDS011;33183;52.290;6.144;2023-03-01T13:45:14;1.20;;;1.00;;
47431;SDS011;33183;52.290;6.144;2023-03-01T13:47:42;3.08;;;1.58;;
47431;SDS011;33183;52.290;6.144;2023-03-01T13:50:15;1.60;;;1.00;;
47431;SDS011;33183;52.290;6.144;2023-03-01T13:52:43;1.45;;;1.10;;
47431;SDS011;33183;52.290;6.144;2023-03-01T13:57:59;1.50;;;0.90;;
47431;SDS011;33183;52.290;6.144;2023-03-01T14:03:04;2.00;;;0.90;;
47431;SDS011;33183;52.290;6.144;2023-03-01T14:05:33;1.27;;;0.80;;
47431;SDS011;33183;52.290;6.144;2023-03-01T14:08:00;1.73;;;1.00;;
47431;SDS011;33183;52.290;6.144;2023-03-01T14:10:29;1.35;;;0.80;;
47431;SDS011;33183;52.290;6.144;2023-03-01T14:15:42;1.25;;;1.00;;
47431;SDS011;33183;52.290;6.144;2023-03-01T14:21:00;1.55;;;1.00;;
47431;SDS011;33183;52.290;6.144;2023-03-01T14:23:26;1.58;;;1.08;;
47431;SDS011;33183;52.290;6.144;2023-03-01T14:25:55;2.08;;;1.20;;
47431;SDS011;33183;52.290;6.144;2023-03-01T14:28:26;1.35;;;0.88;;
47431;SDS011;33183;52.290;6.144;2023-03-01T14:30:53;1.35;;;1.02;;
47431;SDS011;33183;52.290;6.144;2023-03-01T14:33:24;1.23;;;0.88;;
47431;SDS011;33183;52.290;6.144;2023-03-01T14:35:56;1.55;;;0.80;;
47431;SDS011;33183;52.290;6.144;2023-03-01T14:38:33;2.28;;;1.42;;
47431;SDS011;33183;52.290;6.144;2023-03-01T14:41:09;0.90;;;0.70;;
47431;SDS011;33183;52.290;6.144;2023-03-01T14:43:37;1.20;;;0.80;;
47431;SDS011;33183;52.290;6.144;2023-03-01T14:46:04;1.40;;;0.85;;
47431;SDS011;33183;52.290;6.144;2023-03-01T14:48:30;1.45;;;0.80;;
47431;SDS011;33183;52.290;6.144;2023-03-01T14:50:56;1.98;;;0.80;;
47431;SDS011;33183;52.290;6.144;2023-03-01T14:53:23;2.03;;;0.90;;
47431;SDS011;33183;52.290;6.144;2023-03-01T14:55:50;2.15;;;0.77;;
47431;SDS011;33183;52.290;6.144;2023-03-01T14:58:19;2.78;;;0.90;;
47431;SDS011;33183;52.290;6.144;2023-03-01T15:00:53;1.40;;;0.90;;
47431;SDS011;33183;52.290;6.144;2023-03-01T15:03:24;1.58;;;0.75;;
47431;SDS011;33183;52.290;6.144;2023-03-01T15:05:51;3.03;;;1.10;;
47431;SDS011;33183;52.290;6.144;2023-03-01T15:08:17;1.85;;;0.85;;
47431;SDS011;33183;52.290;6.144;2023-03-01T15:10:55;1.30;;;0.80;;
47431;SDS011;33183;52.290;6.144;2023-03-01T15:13:26;1.10;;;0.77;;
47431;SDS011;33183;52.290;6.144;2023-03-01T15:16:00;1.10;;;0.90;;
47431;SDS011;33183;52.290;6.144;2023-03-01T15:18:28;1.15;;;0.90;;
47431;SDS011;33183;52.290;6.144;2023-03-01T15:20:54;2.05;;;0.88;;
47431;SDS011;33183;52.290;6.144;2023-03-01T15:23:29;2.50;;;0.90;;
47431;SDS011;33183;52.290;6.144;2023-03-01T15:25:55;1.60;;;0.88;;
47431;SDS011;33183;52.290;6.144;2023-03-01T15:28:48;1.33;;;0.82;;
47431;SDS011;33183;52.290;6.144;2023-03-01T15:31:18;2.83;;;0.98;;
47431;SDS011;33183;52.290;6.144;2023-03-01T15:33:46;1.15;;;0.80;;
47431;SDS011;33183;52.290;6.144;2023-03-01T15:36:35;1.33;;;1.05;;
47431;SDS011;33183;52.290;6.144;2023-03-01T15:42:05;1.58;;;1.13;;
47431;SDS011;33183;52.290;6.144;2023-03-01T15:44:37;2.97;;;1.10;;
47431;SDS011;33183;52.290;6.144;2023-03-01T15:47:08;0.85;;;0.80;;
47431;SDS011;33183;52.290;6.144;2023-03-01T15:49:47;1.30;;;0.90;;
47431;SDS011;33183;52.290;6.144;2023-03-01T15:52:22;1.70;;;1.05;;
47431;SDS011;33183;52.290;6.144;2023-03-01T15:55:04;2.60;;;0.88;;
47431;SDS011;33183;52.290;6.144;2023-03-01T15:57:31;2.20;;;0.80;;
47431;SDS011;33183;52.290;6.144;2023-03-01T15:59:56;1.17;;;1.00;;
47431;SDS011;33183;52.290;6.144;2023-03-01T16:02:22;0.70;;;0.70;;
47431;SDS011;33183;52.290;6.144;2023-03-01T16:04:48;1.35;;;0.80;;
47431;SDS011;33183;52.290;6.144;2023-03-01T16:07:14;2.25;;;1.05;;
47431;SDS011;33183;52.290;6.144;2023-03-01T16:09:39;1.27;;;1.00;;
47431;SDS011;33183;52.290;6.144;2023-03-01T16:12:05;2.25;;;0.80;;
47431;SDS011;33183;52.290;6.144;2023-03-01T16:14:30;4.45;;;1.50;;
47431;SDS011;33183;52.290;6.144;2023-03-01T16:16:55;2.67;;;1.15;;
47431;SDS011;33183;52.290;6.144;2023-03-01T16:19:21;3.67;;;1.63;;
47431;SDS011;33183;52.290;6.144;2023-03-01T16:21:46;1.38;;;0.80;;
47431;SDS011;33183;52.290;6.144;2023-03-01T16:24:13;1.60;;;0.88;;
47431;SDS011;33183;52.290;6.144;2023-03-01T16:26:39;2.05;;;1.00;;
47431;SDS011;33183;52.290;6.144;2023-03-01T16:29:04;2.05;;;1.13;;
47431;SDS011;33183;52.290;6.144;2023-03-01T16:31:30;1.98;;;1.02;;
47431;SDS011;33183;52.290;6.144;2023-03-01T16:33:55;1.83;;;0.95;;
47431;SDS011;33183;52.290;6.144;2023-03-01T16:36:22;1.38;;;0.70;;
47431;SDS011;33183;52.290;6.144;2023-03-01T16:38:48;1.92;;;0.70;;
47431;SDS011;33183;52.290;6.144;2023-03-01T16:41:15;1.55;;;0.80;;
47431;SDS011;33183;52.290;6.144;2023-03-01T16:43:42;2.38;;;0.70;;
47431;SDS011;33183;52.290;6.144;2023-03-01T16:46:17;2.05;;;0.90;;
47431;SDS011;33183;52.290;6.144;2023-03-01T16:48:49;1.92;;;1.13;;